sensor_id;sensor_type;location;lat;lon;timestamp;temperature;humidity
9816;DHT22;4947;44.526;11.360;2022-12-16T00:00:08;4.60;95.40
9816;DHT22;4947;44.526;11.360;2022-12-16T00:02:36;4.60;95.30
9816;DHT22;4947;44.526;11.360;2022-12-16T00:05:06;4.60;95.40
9816;DHT22;4947;44.526;11.360;2022-12-16T00:07:34;4.60;95.30
9816;DHT22;4947;44.526;11.360;2022-12-16T00:10:03;4.60;95.40
9816;DHT22;4947;44.526;11.360;2022-12-16T00:12:31;4.60;95.40
9816;DHT22;4947;44.526;11.360;2022-12-16T00:14:58;4.60;95.40
9816;DHT22;4947;44.526;11.360;2022-12-16T00:17:26;4.60;95.40
9816;DHT22;4947;44.526;11.360;2022-12-16T00:19:53;4.60;95.40
9816;DHT22;4947;44.526;11.360;2022-12-16T00:22:23;4.60;95.40
9816;DHT22;4947;44.526;11.360;2022-12-16T00:24:50;4.60;95.40
9816;DHT22;4947;44.526;11.360;2022-12-16T00:27:17;4.60;95.40
9816;DHT22;4947;44.526;11.360;2022-12-16T00:29:44;4.60;95.40
9816;DHT22;4947;44.526;11.360;2022-12-16T00:32:12;4.60;95.70
9816;DHT22;4947;44.526;11.360;2022-12-16T00:34:40;4.60;95.30
9816;DHT22;4947;44.526;11.360;2022-12-16T00:37:07;4.60;95.40
9816;DHT22;4947;44.526;11.360;2022-12-16T00:39:37;4.60;95.40
9816;DHT22;4947;44.526;11.360;2022-12-16T00:42:07;4.60;95.50
9816;DHT22;4947;44.526;11.360;2022-12-16T00:44:34;4.60;95.50
9816;DHT22;4947;44.526;11.360;2022-12-16T00:47:02;4.60;95.50
9816;DHT22;4947;44.526;11.360;2022-12-16T00:49:30;4.60;95.50
9816;DHT22;4947;44.526;11.360;2022-12-16T00:51:57;4.60;95.60
9816;DHT22;4947;44.526;11.360;2022-12-16T00:54:25;4.60;95.60
9816;DHT22;4947;44.526;11.360;2022-12-16T00:56:54;4.60;95.70
9816;DHT22;4947;44.526;11.360;2022-12-16T00:59:22;4.60;95.60
9816;DHT22;4947;44.526;11.360;2022-12-16T01:01:49;4.50;95.50
9816;DHT22;4947;44.526;11.360;2022-12-16T01:04:16;4.50;95.50
9816;DHT22;4947;44.526;11.360;2022-12-16T01:06:45;4.50;95.50
9816;DHT22;4947;44.526;11.360;2022-12-16T01:09:13;4.50;95.50
9816;DHT22;4947;44.526;11.360;2022-12-16T01:11:40;4.60;95.50
9816;DHT22;4947;44.526;11.360;2022-12-16T01:14:09;4.60;95.40
9816;DHT22;4947;44.526;11.360;2022-12-16T01:16:37;4.60;95.40
9816;DHT22;4947;44.526;11.360;2022-12-16T01:19:04;4.60;95.40
9816;DHT22;4947;44.526;11.360;2022-12-16T01:21:32;4.60;95.40
9816;DHT22;4947;44.526;11.360;2022-12-16T01:23:59;4.50;95.30
9816;DHT22;4947;44.526;11.360;2022-12-16T01:26:30;4.50;95.30
9816;DHT22;4947;44.526;11.360;2022-12-16T01:28:57;4.50;95.30
9816;DHT22;4947;44.526;11.360;2022-12-16T01:31:27;4.60;95.30
9816;DHT22;4947;44.526;11.360;2022-12-16T01:33:54;4.60;95.30
9816;DHT22;4947;44.526;11.360;2022-12-16T01:36:22;4.50;95.30
9816;DHT22;4947;44.526;11.360;2022-12-16T01:38:51;4.60;95.30
9816;DHT22;4947;44.526;11.360;2022-12-16T01:41:18;4.50;95.20
9816;DHT22;4947;44.526;11.360;2022-12-16T01:43:46;4.50;95.20
9816;DHT22;4947;44.526;11.360;2022-12-16T01:46:17;4.50;95.20
9816;DHT22;4947;44.526;11.360;2022-12-16T01:48:50;4.50;95.20
9816;DHT22;4947;44.526;11.360;2022-12-16T01:51:21;4.50;95.20
9816;DHT22;4947;44.526;11.360;2022-12-16T01:53:53;4.50;95.20
9816;DHT22;4947;44.526;11.360;2022-12-16T01:56:24;4.50;95.20
9816;DHT22;4947;44.526;11.360;2022-12-16T01:58:54;4.50;95.20
9816;DHT22;4947;44.526;11.360;2022-12-16T02:01:22;4.50;95.20
9816;DHT22;4947;44.526;11.360;2022-12-16T02:03:53;4.50;95.20
9816;DHT22;4947;44.526;11.360;2022-12-16T02:06:23;4.50;95.20
9816;DHT22;4947;44.526;11.360;2022-12-16T02:08:54;4.50;95.10
9816;DHT22;4947;44.526;11.360;2022-12-16T02:11:31;4.50;95.10
9816;DHT22;4947;44.526;11.360;2022-12-16T02:14:25;4.50;95.10
9816;DHT22;4947;44.526;11.360;2022-12-16T02:16:59;4.40;95.10
9816;DHT22;4947;44.526;11.360;2022-12-16T02:19:57;4.40;95.10
9816;DHT22;4947;44.526;11.360;2022-12-16T02:22:38;4.40;95.10
9816;DHT22;4947;44.526;11.360;2022-12-16T02:25:36;4.30;95.00
9816;DHT22;4947;44.526;11.360;2022-12-16T02:28:22;4.30;95.00
9816;DHT22;4947;44.526;11.360;2022-12-16T02:31:06;4.30;95.00
9816;DHT22;4947;44.526;11.360;2022-12-16T02:34:08;4.20;94.90
9816;DHT22;4947;44.526;11.360;2022-12-16T02:36:48;4.20;94.90
9816;DHT22;4947;44.526;11.360;2022-12-16T02:39:20;4.20;94.90
9816;DHT22;4947;44.526;11.360;2022-12-16T02:41:52;4.20;94.90
9816;DHT22;4947;44.526;11.360;2022-12-16T02:44:28;4.20;94.90
9816;DHT22;4947;44.526;11.360;2022-12-16T02:47:02;4.20;94.90
9816;DHT22;4947;44.526;11.360;2022-12-16T02:49:46;4.20;94.90
9816;DHT22;4947;44.526;11.360;2022-12-16T02:52:14;4.20;95.00
9816;DHT22;4947;44.526;11.360;2022-12-16T02:54:43;4.20;94.90
9816;DHT22;4947;44.526;11.360;2022-12-16T03:00:16;4.20;94.90
9816;DHT22;4947;44.526;11.360;2022-12-16T03:02:52;4.20;94.90
9816;DHT22;4947;44.526;11.360;2022-12-16T03:05:22;4.10;94.80
9816;DHT22;4947;44.526;11.360;2022-12-16T03:07:53;4.10;94.70
9816;DHT22;4947;44.526;11.360;2022-12-16T03:10:25;4.10;94.70
9816;DHT22;4947;44.526;11.360;2022-12-16T03:12:55;4.10;94.80
9816;DHT22;4947;44.526;11.360;2022-12-16T03:15:26;4.10;94.80
9816;DHT22;4947;44.526;11.360;2022-12-16T03:17:57;4.10;94.90
9816;DHT22;4947;44.526;11.360;2022-12-16T03:20:27;4.20;95.00
9816;DHT22;4947;44.526;11.360;2022-12-16T03:22:59;4.10;94.80
9816;DHT22;4947;44.526;11.360;2022-12-16T03:25:29;4.10;94.80
9816;DHT22;4947;44.526;11.360;2022-12-16T03:28:05;4.20;94.80
9816;DHT22;4947;44.526;11.360;2022-12-16T03:30:39;4.10;94.90
9816;DHT22;4947;44.526;11.360;2022-12-16T03:33:13;4.20;94.90
9816;DHT22;4947;44.526;11.360;2022-12-16T03:35:47;4.10;94.80
9816;DHT22;4947;44.526;11.360;2022-12-16T03:38:19;4.20;94.90
9816;DHT22;4947;44.526;11.360;2022-12-16T03:40:49;4.20;95.00
9816;DHT22;4947;44.526;11.360;2022-12-16T03:43:18;4.10;94.80
9816;DHT22;4947;44.526;11.360;2022-12-16T03:45:51;4.10;94.80
9816;DHT22;4947;44.526;11.360;2022-12-16T03:48:24;4.20;94.80
9816;DHT22;4947;44.526;11.360;2022-12-16T03:50:52;4.20;94.80
9816;DHT22;4947;44.526;11.360;2022-12-16T03:53:26;4.10;94.70
9816;DHT22;4947;44.526;11.360;2022-12-16T03:55:53;4.20;94.80
9816;DHT22;4947;44.526;11.360;2022-12-16T03:58:20;4.20;94.80
9816;DHT22;4947;44.526;11.360;2022-12-16T04:00:48;4.20;94.70
9816;DHT22;4947;44.526;11.360;2022-12-16T04:03:15;4.20;94.70
9816;DHT22;4947;44.526;11.360;2022-12-16T04:05:44;4.20;94.60
9816;DHT22;4947;44.526;11.360;2022-12-16T04:08:12;4.20;94.50
9816;DHT22;4947;44.526;11.360;2022-12-16T04:10:39;4.20;94.50
9816;DHT22;4947;44.526;11.360;2022-12-16T04:13:24;4.20;94.40
9816;DHT22;4947;44.526;11.360;2022-12-16T04:16:13;4.10;94.20
9816;DHT22;4947;44.526;11.360;2022-12-16T04:18:58;4.20;94.60
9816;DHT22;4947;44.526;11.360;2022-12-16T04:21:44;4.20;94.50
9816;DHT22;4947;44.526;11.360;2022-12-16T04:24:29;4.20;94.40
9816;DHT22;4947;44.526;11.360;2022-12-16T04:26:57;4.20;94.20
9816;DHT22;4947;44.526;11.360;2022-12-16T04:29:41;4.10;94.00
9816;DHT22;4947;44.526;11.360;2022-12-16T04:32:22;4.20;94.40
9816;DHT22;4947;44.526;11.360;2022-12-16T04:34:50;4.20;94.00
9816;DHT22;4947;44.526;11.360;2022-12-16T04:37:18;4.20;93.90
9816;DHT22;4947;44.526;11.360;2022-12-16T04:40:03;4.20;93.70
9816;DHT22;4947;44.526;11.360;2022-12-16T04:42:48;4.10;93.60
9816;DHT22;4947;44.526;11.360;2022-12-16T04:45:47;4.20;93.90
9816;DHT22;4947;44.526;11.360;2022-12-16T04:48:31;4.20;93.80
9816;DHT22;4947;44.526;11.360;2022-12-16T04:51:16;4.20;93.60
9816;DHT22;4947;44.526;11.360;2022-12-16T04:54:01;4.20;93.30
9816;DHT22;4947;44.526;11.360;2022-12-16T04:56:45;4.20;93.30
9816;DHT22;4947;44.526;11.360;2022-12-16T04:59:35;4.30;93.20
9816;DHT22;4947;44.526;11.360;2022-12-16T05:02:31;4.20;93.00
9816;DHT22;4947;44.526;11.360;2022-12-16T05:05:16;4.20;92.70
9816;DHT22;4947;44.526;11.360;2022-12-16T05:08:00;4.20;92.30
9816;DHT22;4947;44.526;11.360;2022-12-16T05:10:46;4.20;92.30
9816;DHT22;4947;44.526;11.360;2022-12-16T05:13:30;4.30;92.30
9816;DHT22;4947;44.526;11.360;2022-12-16T05:16:15;4.20;92.20
9816;DHT22;4947;44.526;11.360;2022-12-16T05:18:59;4.20;92.10
9816;DHT22;4947;44.526;11.360;2022-12-16T05:21:44;4.30;92.20
9816;DHT22;4947;44.526;11.360;2022-12-16T05:24:28;4.20;91.80
9816;DHT22;4947;44.526;11.360;2022-12-16T05:27:14;4.20;91.40
9816;DHT22;4947;44.526;11.360;2022-12-16T05:30:13;4.30;91.50
9816;DHT22;4947;44.526;11.360;2022-12-16T05:32:57;4.30;91.30
9816;DHT22;4947;44.526;11.360;2022-12-16T05:35:42;4.30;91.20
9816;DHT22;4947;44.526;11.360;2022-12-16T05:38:27;4.30;91.30
9816;DHT22;4947;44.526;11.360;2022-12-16T05:41:11;4.30;91.30
9816;DHT22;4947;44.526;11.360;2022-12-16T05:43:57;4.30;91.10
9816;DHT22;4947;44.526;11.360;2022-12-16T05:46:41;4.30;90.80
9816;DHT22;4947;44.526;11.360;2022-12-16T05:49:26;4.30;90.50
9816;DHT22;4947;44.526;11.360;2022-12-16T05:52:10;4.40;90.50
9816;DHT22;4947;44.526;11.360;2022-12-16T05:54:54;4.40;90.20
9816;DHT22;4947;44.526;11.360;2022-12-16T05:57:39;4.40;89.80
9816;DHT22;4947;44.526;11.360;2022-12-16T06:00:25;4.40;89.00
9816;DHT22;4947;44.526;11.360;2022-12-16T06:03:10;4.40;88.40
9816;DHT22;4947;44.526;11.360;2022-12-16T06:05:54;4.40;87.80
9816;DHT22;4947;44.526;11.360;2022-12-16T06:08:38;4.40;87.20
9816;DHT22;4947;44.526;11.360;2022-12-16T06:11:23;4.40;86.00
9816;DHT22;4947;44.526;11.360;2022-12-16T06:14:07;4.40;86.00
9816;DHT22;4947;44.526;11.360;2022-12-16T06:16:53;4.40;86.30
9816;DHT22;4947;44.526;11.360;2022-12-16T06:19:37;4.50;86.10
9816;DHT22;4947;44.526;11.360;2022-12-16T06:22:24;4.50;84.80
9816;DHT22;4947;44.526;11.360;2022-12-16T06:25:08;4.50;83.60
9816;DHT22;4947;44.526;11.360;2022-12-16T06:27:52;4.50;82.10
9816;DHT22;4947;44.526;11.360;2022-12-16T06:30:37;4.50;81.90
9816;DHT22;4947;44.526;11.360;2022-12-16T06:33:23;4.50;82.40
9816;DHT22;4947;44.526;11.360;2022-12-16T06:36:08;4.50;81.40
9816;DHT22;4947;44.526;11.360;2022-12-16T06:38:52;4.50;80.60
9816;DHT22;4947;44.526;11.360;2022-12-16T06:41:37;4.50;82.20
9816;DHT22;4947;44.526;11.360;2022-12-16T06:44:21;4.50;82.40
9816;DHT22;4947;44.526;11.360;2022-12-16T06:47:06;4.60;83.50
9816;DHT22;4947;44.526;11.360;2022-12-16T06:49:52;4.60;83.00
9816;DHT22;4947;44.526;11.360;2022-12-16T06:52:36;4.60;81.60
9816;DHT22;4947;44.526;11.360;2022-12-16T06:55:21;4.60;83.80
9816;DHT22;4947;44.526;11.360;2022-12-16T06:58:05;4.60;83.40
9816;DHT22;4947;44.526;11.360;2022-12-16T07:00:49;4.60;83.00
9816;DHT22;4947;44.526;11.360;2022-12-16T07:03:34;4.70;82.80
9816;DHT22;4947;44.526;11.360;2022-12-16T07:06:20;4.70;83.10
9816;DHT22;4947;44.526;11.360;2022-12-16T07:09:05;4.80;82.70
9816;DHT22;4947;44.526;11.360;2022-12-16T07:11:49;4.70;80.60
9816;DHT22;4947;44.526;11.360;2022-12-16T07:14:33;4.70;81.60
9816;DHT22;4947;44.526;11.360;2022-12-16T07:17:18;4.80;81.50
9816;DHT22;4947;44.526;11.360;2022-12-16T07:20:03;4.80;81.60
9816;DHT22;4947;44.526;11.360;2022-12-16T07:22:49;4.90;80.70
9816;DHT22;4947;44.526;11.360;2022-12-16T07:25:33;4.90;79.50
9816;DHT22;4947;44.526;11.360;2022-12-16T07:28:17;4.90;78.50
9816;DHT22;4947;44.526;11.360;2022-12-16T07:31:02;4.90;77.30
9816;DHT22;4947;44.526;11.360;2022-12-16T07:33:47;4.90;78.00
9816;DHT22;4947;44.526;11.360;2022-12-16T07:36:31;5.00;79.80
9816;DHT22;4947;44.526;11.360;2022-12-16T07:39:17;5.00;78.20
9816;DHT22;4947;44.526;11.360;2022-12-16T07:42:02;5.00;77.40
9816;DHT22;4947;44.526;11.360;2022-12-16T07:44:47;5.00;76.90
9816;DHT22;4947;44.526;11.360;2022-12-16T07:47:31;5.10;75.80
9816;DHT22;4947;44.526;11.360;2022-12-16T07:50:16;5.10;73.60
9816;DHT22;4947;44.526;11.360;2022-12-16T07:53:00;5.10;72.80
9816;DHT22;4947;44.526;11.360;2022-12-16T07:55:47;5.10;71.60
9816;DHT22;4947;44.526;11.360;2022-12-16T07:58:31;5.20;69.60
9816;DHT22;4947;44.526;11.360;2022-12-16T08:01:15;5.20;68.10
9816;DHT22;4947;44.526;11.360;2022-12-16T08:04:00;5.20;66.20
9816;DHT22;4947;44.526;11.360;2022-12-16T08:06:44;5.20;62.70
9816;DHT22;4947;44.526;11.360;2022-12-16T08:09:29;5.20;62.10
9816;DHT22;4947;44.526;11.360;2022-12-16T08:12:14;5.20;62.30
9816;DHT22;4947;44.526;11.360;2022-12-16T08:14:59;5.20;61.40
9816;DHT22;4947;44.526;11.360;2022-12-16T08:17:47;5.30;62.40
9816;DHT22;4947;44.526;11.360;2022-12-16T08:20:32;5.30;59.40
9816;DHT22;4947;44.526;11.360;2022-12-16T08:23:16;5.30;59.70
9816;DHT22;4947;44.526;11.360;2022-12-16T08:26:01;5.40;58.20
9816;DHT22;4947;44.526;11.360;2022-12-16T08:28:47;5.30;57.00
9816;DHT22;4947;44.526;11.360;2022-12-16T08:31:32;5.40;57.60
9816;DHT22;4947;44.526;11.360;2022-12-16T08:34:16;5.40;56.90
9816;DHT22;4947;44.526;11.360;2022-12-16T08:37:01;5.40;54.80
9816;DHT22;4947;44.526;11.360;2022-12-16T08:39:45;5.40;53.70
9816;DHT22;4947;44.526;11.360;2022-12-16T08:42:30;5.40;56.30
9816;DHT22;4947;44.526;11.360;2022-12-16T08:45:16;5.40;55.80
9816;DHT22;4947;44.526;11.360;2022-12-16T08:48:00;5.40;53.30
9816;DHT22;4947;44.526;11.360;2022-12-16T08:50:44;5.40;50.80
9816;DHT22;4947;44.526;11.360;2022-12-16T08:53:29;5.40;51.10
9816;DHT22;4947;44.526;11.360;2022-12-16T08:56:13;5.40;52.40
9816;DHT22;4947;44.526;11.360;2022-12-16T08:58:57;5.40;53.10
9816;DHT22;4947;44.526;11.360;2022-12-16T09:01:43;5.40;55.80
9816;DHT22;4947;44.526;11.360;2022-12-16T09:04:27;5.40;56.30
9816;DHT22;4947;44.526;11.360;2022-12-16T09:07:12;5.50;54.40
9816;DHT22;4947;44.526;11.360;2022-12-16T09:09:59;5.50;51.80
9816;DHT22;4947;44.526;11.360;2022-12-16T09:12:44;5.50;51.00
9816;DHT22;4947;44.526;11.360;2022-12-16T09:15:28;5.50;49.50
9816;DHT22;4947;44.526;11.360;2022-12-16T09:18:14;5.60;50.40
9816;DHT22;4947;44.526;11.360;2022-12-16T09:20:59;5.60;48.50
9816;DHT22;4947;44.526;11.360;2022-12-16T09:23:43;5.60;47.80
9816;DHT22;4947;44.526;11.360;2022-12-16T09:26:28;5.60;45.40
9816;DHT22;4947;44.526;11.360;2022-12-16T09:29:12;5.70;50.90
9816;DHT22;4947;44.526;11.360;2022-12-16T09:31:57;5.70;47.70
9816;DHT22;4947;44.526;11.360;2022-12-16T09:34:43;5.80;47.10
9816;DHT22;4947;44.526;11.360;2022-12-16T09:37:27;5.80;41.70
9816;DHT22;4947;44.526;11.360;2022-12-16T09:40:13;5.80;38.60
9816;DHT22;4947;44.526;11.360;2022-12-16T09:43:04;6.00;39.70
9816;DHT22;4947;44.526;11.360;2022-12-16T09:45:57;6.10;34.00
9816;DHT22;4947;44.526;11.360;2022-12-16T09:48:49;6.00;29.30
9816;DHT22;4947;44.526;11.360;2022-12-16T09:51:36;6.00;26.80
9816;DHT22;4947;44.526;11.360;2022-12-16T09:54:33;6.00;25.60
9816;DHT22;4947;44.526;11.360;2022-12-16T09:57:20;5.90;20.70
9816;DHT22;4947;44.526;11.360;2022-12-16T10:00:07;6.00;22.40
9816;DHT22;4947;44.526;11.360;2022-12-16T10:02:56;6.00;21.50
9816;DHT22;4947;44.526;11.360;2022-12-16T10:05:46;6.10;22.50
9816;DHT22;4947;44.526;11.360;2022-12-16T10:08:43;6.20;20.50
9816;DHT22;4947;44.526;11.360;2022-12-16T10:11:40;6.20;20.60
9816;DHT22;4947;44.526;11.360;2022-12-16T10:14:30;6.20;17.80
9816;DHT22;4947;44.526;11.360;2022-12-16T10:17:19;6.20;16.50
9816;DHT22;4947;44.526;11.360;2022-12-16T10:20:12;6.30;17.70
9816;DHT22;4947;44.526;11.360;2022-12-16T10:23:04;6.30;20.00
9816;DHT22;4947;44.526;11.360;2022-12-16T10:25:53;6.30;15.40
9816;DHT22;4947;44.526;11.360;2022-12-16T10:28:44;6.30;15.10
9816;DHT22;4947;44.526;11.360;2022-12-16T10:31:28;6.30;11.90
9816;DHT22;4947;44.526;11.360;2022-12-16T10:34:15;6.20;16.20
9816;DHT22;4947;44.526;11.360;2022-12-16T10:37:01;6.20;18.00
9816;DHT22;4947;44.526;11.360;2022-12-16T10:39:48;6.30;18.40
9816;DHT22;4947;44.526;11.360;2022-12-16T10:42:41;6.40;19.20
9816;DHT22;4947;44.526;11.360;2022-12-16T10:45:30;6.40;22.40
9816;DHT22;4947;44.526;11.360;2022-12-16T10:48:18;6.50;23.90
9816;DHT22;4947;44.526;11.360;2022-12-16T10:51:12;6.40;24.30
9816;DHT22;4947;44.526;11.360;2022-12-16T10:54:07;6.30;22.10
9816;DHT22;4947;44.526;11.360;2022-12-16T10:57:04;6.20;27.30
9816;DHT22;4947;44.526;11.360;2022-12-16T11:00:08;6.30;30.10
9816;DHT22;4947;44.526;11.360;2022-12-16T11:02:52;6.10;32.00
9816;DHT22;4947;44.526;11.360;2022-12-16T11:05:37;6.00;42.70
9816;DHT22;4947;44.526;11.360;2022-12-16T11:08:27;5.90;36.30
9816;DHT22;4947;44.526;11.360;2022-12-16T11:11:17;5.90;47.80
9816;DHT22;4947;44.526;11.360;2022-12-16T11:14:22;5.90;50.50
9816;DHT22;4947;44.526;11.360;2022-12-16T11:17:17;6.00;43.10
9816;DHT22;4947;44.526;11.360;2022-12-16T11:20:10;5.90;36.40
9816;DHT22;4947;44.526;11.360;2022-12-16T11:23:19;6.00;38.60
9816;DHT22;4947;44.526;11.360;2022-12-16T11:26:09;6.00;36.40
9816;DHT22;4947;44.526;11.360;2022-12-16T11:29:08;6.10;42.90
9816;DHT22;4947;44.526;11.360;2022-12-16T11:31:59;6.00;37.80
9816;DHT22;4947;44.526;11.360;2022-12-16T11:34:51;5.90;35.70
9816;DHT22;4947;44.526;11.360;2022-12-16T11:37:37;5.80;40.60
9816;DHT22;4947;44.526;11.360;2022-12-16T11:40:23;5.80;40.70
9816;DHT22;4947;44.526;11.360;2022-12-16T11:43:10;5.80;43.40
9816;DHT22;4947;44.526;11.360;2022-12-16T11:45:56;5.90;43.90
9816;DHT22;4947;44.526;11.360;2022-12-16T11:48:48;5.80;36.10
9816;DHT22;4947;44.526;11.360;2022-12-16T11:51:36;5.80;40.40
9816;DHT22;4947;44.526;11.360;2022-12-16T11:54:24;5.80;42.60
9816;DHT22;4947;44.526;11.360;2022-12-16T11:57:17;5.80;38.80
9816;DHT22;4947;44.526;11.360;2022-12-16T12:00:03;5.80;39.20
9816;DHT22;4947;44.526;11.360;2022-12-16T12:02:52;5.70;42.40
9816;DHT22;4947;44.526;11.360;2022-12-16T12:05:43;5.70;44.00
9816;DHT22;4947;44.526;11.360;2022-12-16T12:08:36;5.70;42.30
9816;DHT22;4947;44.526;11.360;2022-12-16T12:11:27;5.60;52.60
9816;DHT22;4947;44.526;11.360;2022-12-16T12:14:20;5.50;58.30
9816;DHT22;4947;44.526;11.360;2022-12-16T12:17:17;5.50;61.20
9816;DHT22;4947;44.526;11.360;2022-12-16T12:20:26;5.60;62.30
9816;DHT22;4947;44.526;11.360;2022-12-16T12:23:16;5.60;61.30
9816;DHT22;4947;44.526;11.360;2022-12-16T12:26:10;5.60;62.20
9816;DHT22;4947;44.526;11.360;2022-12-16T12:29:03;5.60;65.70
9816;DHT22;4947;44.526;11.360;2022-12-16T12:31:57;5.60;68.40
9816;DHT22;4947;44.526;11.360;2022-12-16T12:34:49;5.60;72.90
9816;DHT22;4947;44.526;11.360;2022-12-16T12:37:45;5.60;74.50
9816;DHT22;4947;44.526;11.360;2022-12-16T12:40:42;5.60;74.10
9816;DHT22;4947;44.526;11.360;2022-12-16T12:43:40;5.60;72.60
9816;DHT22;4947;44.526;11.360;2022-12-16T12:46:32;5.70;71.80
9816;DHT22;4947;44.526;11.360;2022-12-16T12:49:26;5.70;72.80
9816;DHT22;4947;44.526;11.360;2022-12-16T12:52:18;5.80;74.80
9816;DHT22;4947;44.526;11.360;2022-12-16T12:55:11;5.90;77.20
9816;DHT22;4947;44.526;11.360;2022-12-16T12:57:59;5.90;73.90
9816;DHT22;4947;44.526;11.360;2022-12-16T13:00:49;6.00;69.60
9816;DHT22;4947;44.526;11.360;2022-12-16T13:03:37;6.00;67.40
9816;DHT22;4947;44.526;11.360;2022-12-16T13:06:23;6.00;61.30
9816;DHT22;4947;44.526;11.360;2022-12-16T13:09:23;6.10;63.60
9816;DHT22;4947;44.526;11.360;2022-12-16T13:12:26;6.20;64.30
9816;DHT22;4947;44.526;11.360;2022-12-16T13:15:32;6.20;59.10
9816;DHT22;4947;44.526;11.360;2022-12-16T13:18:24;6.20;58.50
9816;DHT22;4947;44.526;11.360;2022-12-16T13:21:41;6.20;51.70
9816;DHT22;4947;44.526;11.360;2022-12-16T13:24:36;6.10;51.50
9816;DHT22;4947;44.526;11.360;2022-12-16T13:27:21;6.20;52.20
9816;DHT22;4947;44.526;11.360;2022-12-16T13:30:19;6.20;53.60
9816;DHT22;4947;44.526;11.360;2022-12-16T13:33:06;6.10;49.30
9816;DHT22;4947;44.526;11.360;2022-12-16T13:35:56;6.20;53.00
9816;DHT22;4947;44.526;11.360;2022-12-16T13:38:45;6.30;58.10
9816;DHT22;4947;44.526;11.360;2022-12-16T13:41:50;6.40;52.40
9816;DHT22;4947;44.526;11.360;2022-12-16T13:44:54;6.40;46.40
9816;DHT22;4947;44.526;11.360;2022-12-16T13:47:57;6.40;44.60
9816;DHT22;4947;44.526;11.360;2022-12-16T13:50:43;6.40;50.90
9816;DHT22;4947;44.526;11.360;2022-12-16T13:53:31;6.50;54.20
9816;DHT22;4947;44.526;11.360;2022-12-16T13:56:22;6.40;48.70
9816;DHT22;4947;44.526;11.360;2022-12-16T13:59:15;6.40;48.10
9816;DHT22;4947;44.526;11.360;2022-12-16T14:02:08;6.40;49.80
9816;DHT22;4947;44.526;11.360;2022-12-16T14:04:55;6.40;51.00
9816;DHT22;4947;44.526;11.360;2022-12-16T14:07:40;6.40;49.80
9816;DHT22;4947;44.526;11.360;2022-12-16T14:10:27;6.40;53.60
9816;DHT22;4947;44.526;11.360;2022-12-16T14:13:16;6.40;53.40
9816;DHT22;4947;44.526;11.360;2022-12-16T14:16:10;6.60;57.80
9816;DHT22;4947;44.526;11.360;2022-12-16T14:19:07;6.70;49.10
9816;DHT22;4947;44.526;11.360;2022-12-16T14:22:03;6.60;43.80
9816;DHT22;4947;44.526;11.360;2022-12-16T14:24:50;6.50;43.20
9816;DHT22;4947;44.526;11.360;2022-12-16T14:27:36;6.50;44.10
9816;DHT22;4947;44.526;11.360;2022-12-16T14:30:22;6.40;45.50
9816;DHT22;4947;44.526;11.360;2022-12-16T14:33:15;6.40;47.90
9816;DHT22;4947;44.526;11.360;2022-12-16T14:36:00;6.40;47.80
9816;DHT22;4947;44.526;11.360;2022-12-16T14:38:47;6.40;50.90
9816;DHT22;4947;44.526;11.360;2022-12-16T14:41:32;6.30;48.60
9816;DHT22;4947;44.526;11.360;2022-12-16T14:44:20;6.30;51.30
9816;DHT22;4947;44.526;11.360;2022-12-16T14:47:05;6.20;52.60
9816;DHT22;4947;44.526;11.360;2022-12-16T14:49:55;6.30;54.80
9816;DHT22;4947;44.526;11.360;2022-12-16T14:52:39;6.30;55.00
9816;DHT22;4947;44.526;11.360;2022-12-16T14:55:27;6.30;59.10
9816;DHT22;4947;44.526;11.360;2022-12-16T14:58:14;6.30;61.70
9816;DHT22;4947;44.526;11.360;2022-12-16T15:01:03;6.30;60.50
9816;DHT22;4947;44.526;11.360;2022-12-16T15:03:48;6.30;59.50
9816;DHT22;4947;44.526;11.360;2022-12-16T15:06:36;6.30;57.40
9816;DHT22;4947;44.526;11.360;2022-12-16T15:09:25;6.30;59.20
9816;DHT22;4947;44.526;11.360;2022-12-16T15:12:12;6.30;59.20
9816;DHT22;4947;44.526;11.360;2022-12-16T15:14:59;6.30;61.50
9816;DHT22;4947;44.526;11.360;2022-12-16T15:17:48;6.30;61.10
9816;DHT22;4947;44.526;11.360;2022-12-16T15:20:35;6.30;59.90
9816;DHT22;4947;44.526;11.360;2022-12-16T15:23:22;6.20;63.70
9816;DHT22;4947;44.526;11.360;2022-12-16T15:26:08;6.20;64.70
9816;DHT22;4947;44.526;11.360;2022-12-16T15:28:52;6.20;63.50
9816;DHT22;4947;44.526;11.360;2022-12-16T15:31:38;6.10;63.20
9816;DHT22;4947;44.526;11.360;2022-12-16T15:34:29;6.20;64.20
9816;DHT22;4947;44.526;11.360;2022-12-16T15:37:19;6.10;61.20
9816;DHT22;4947;44.526;11.360;2022-12-16T15:40:14;6.10;60.50
9816;DHT22;4947;44.526;11.360;2022-12-16T15:43:01;6.00;62.10
9816;DHT22;4947;44.526;11.360;2022-12-16T15:45:47;6.00;60.30
9816;DHT22;4947;44.526;11.360;2022-12-16T15:48:34;5.90;62.10
9816;DHT22;4947;44.526;11.360;2022-12-16T15:51:27;5.90;62.50
9816;DHT22;4947;44.526;11.360;2022-12-16T15:54:15;5.80;64.60
9816;DHT22;4947;44.526;11.360;2022-12-16T15:57:00;5.80;69.70
9816;DHT22;4947;44.526;11.360;2022-12-16T15:59:57;5.80;70.80
9816;DHT22;4947;44.526;11.360;2022-12-16T16:02:46;5.80;70.70
9816;DHT22;4947;44.526;11.360;2022-12-16T16:05:35;5.80;68.10
9816;DHT22;4947;44.526;11.360;2022-12-16T16:08:21;5.80;67.00
9816;DHT22;4947;44.526;11.360;2022-12-16T16:11:06;5.80;63.80
9816;DHT22;4947;44.526;11.360;2022-12-16T16:13:51;5.80;63.40
9816;DHT22;4947;44.526;11.360;2022-12-16T16:16:35;5.80;62.90
9816;DHT22;4947;44.526;11.360;2022-12-16T16:19:22;5.80;62.20
9816;DHT22;4947;44.526;11.360;2022-12-16T16:22:10;5.70;62.80
9816;DHT22;4947;44.526;11.360;2022-12-16T16:24:56;5.70;62.80
9816;DHT22;4947;44.526;11.360;2022-12-16T16:27:41;5.80;61.10
9816;DHT22;4947;44.526;11.360;2022-12-16T16:30:21;5.80;60.00
9816;DHT22;4947;44.526;11.360;2022-12-16T16:33:06;5.70;60.80
9816;DHT22;4947;44.526;11.360;2022-12-16T16:35:50;5.70;64.30
9816;DHT22;4947;44.526;11.360;2022-12-16T16:38:35;5.70;63.70
9816;DHT22;4947;44.526;11.360;2022-12-16T16:41:21;5.70;61.70
9816;DHT22;4947;44.526;11.360;2022-12-16T16:44:05;5.70;64.50
9816;DHT22;4947;44.526;11.360;2022-12-16T16:46:50;5.70;63.30
9816;DHT22;4947;44.526;11.360;2022-12-16T16:49:39;5.70;63.70
9816;DHT22;4947;44.526;11.360;2022-12-16T16:52:25;5.70;63.40
9816;DHT22;4947;44.526;11.360;2022-12-16T16:55:14;5.70;64.20
9816;DHT22;4947;44.526;11.360;2022-12-16T16:58:04;5.70;61.60
9816;DHT22;4947;44.526;11.360;2022-12-16T17:00:50;5.60;62.00
9816;DHT22;4947;44.526;11.360;2022-12-16T17:03:34;5.60;63.00
9816;DHT22;4947;44.526;11.360;2022-12-16T17:06:19;5.60;64.20
9816;DHT22;4947;44.526;11.360;2022-12-16T17:09:03;5.60;67.80
9816;DHT22;4947;44.526;11.360;2022-12-16T17:11:48;5.60;69.50
9816;DHT22;4947;44.526;11.360;2022-12-16T17:14:34;5.60;70.90
9816;DHT22;4947;44.526;11.360;2022-12-16T17:17:19;5.60;71.40
9816;DHT22;4947;44.526;11.360;2022-12-16T17:20:04;5.60;71.70
9816;DHT22;4947;44.526;11.360;2022-12-16T17:22:48;5.60;72.80
9816;DHT22;4947;44.526;11.360;2022-12-16T17:25:47;5.60;73.00
9816;DHT22;4947;44.526;11.360;2022-12-16T17:28:32;5.60;72.20
9816;DHT22;4947;44.526;11.360;2022-12-16T17:31:18;5.60;71.90
9816;DHT22;4947;44.526;11.360;2022-12-16T17:34:02;5.60;73.50
9816;DHT22;4947;44.526;11.360;2022-12-16T17:36:46;5.60;73.80
9816;DHT22;4947;44.526;11.360;2022-12-16T17:39:31;5.60;74.50
9816;DHT22;4947;44.526;11.360;2022-12-16T17:42:15;5.60;74.30
9816;DHT22;4947;44.526;11.360;2022-12-16T17:44:59;5.60;75.60
9816;DHT22;4947;44.526;11.360;2022-12-16T17:47:48;5.60;75.50
9816;DHT22;4947;44.526;11.360;2022-12-16T17:50:33;5.60;73.10